Time;durP1;ratioP1;P1;durP2;ratioP2;P2;SDS_P1;SDS_P2;PMS_P1;PMS_P2;Temp;Humidity;BMP_temperature;BMP_pressure;BME280_temperature;BME280_humidity;BME280_pressure;Samples;Min_cycle;Max_cycle;Signal;HPM_P1;HPM_P2
2020/12/02 00:01:07;;;;;;;131.50;60.40;;;;;;;;;;732867;188;918068;-74
2020/12/02 00:03:34;;;;;;;122.20;54.20;;;;;;;;;;730373;188;924903;-72
2020/12/02 00:05:59;;;;;;;121.23;51.10;;;;;;;;;;738389;188;1017994;-71
2020/12/02 00:08:25;;;;;;;113.33;51.80;;;;;;;;;;737388;188;922143;-73
2020/12/02 00:10:51;;;;;;;124.27;53.00;;;;;;;;;;730098;186;919035;-72
2020/12/02 00:13:21;;;;;;;108.70;51.13;;;;;;;;;;741869;185;904824;-71
2020/12/02 00:15:47;;;;;;;114.20;51.43;;;;;;;;;;738510;188;920193;-72
2020/12/02 00:18:13;;;;;;;121.83;55.17;;;;;;;;;;727994;188;2055239;-72
2020/12/02 00:20:38;;;;;;;135.93;62.80;;;;;;;;;;730784;188;918122;-70
2020/12/02 00:23:04;;;;;;;128.17;61.40;;;;;;;;;;743155;188;918739;-71
2020/12/02 00:25:30;;;;;;;137.90;67.27;;;;;;;;;;740246;186;919290;-72
2020/12/02 00:27:56;;;;;;;141.20;67.20;;;;;;;;;;731186;188;919248;-72
2020/12/02 00:30:22;;;;;;;113.45;56.72;;;;;;;;;;744216;186;911622;-72
2020/12/02 00:32:48;;;;;;;110.53;53.50;;;;;;;;;;737124;188;815536;-72
2020/12/02 00:35:14;;;;;;;102.85;50.45;;;;;;;;;;734724;187;919411;-72
2020/12/02 00:37:40;;;;;;;116.10;57.87;;;;;;;;;;743501;185;917894;-73
2020/12/02 00:40:06;;;;;;;118.03;58.40;;;;;;;;;;740706;186;816917;-71
2020/12/02 00:42:32;;;;;;;84.53;44.47;;;;;;;;;;742295;185;629996;-72
2020/12/02 00:44:58;;;;;;;104.20;51.20;;;;;;;;;;738897;188;624638;-72
2020/12/02 00:47:24;;;;;;;116.53;51.90;;;;;;;;;;741704;188;623206;-71
2020/12/02 00:49:50;;;;;;;95.93;45.37;;;;;;;;;;740445;188;622003;-71
2020/12/02 00:52:15;;;;;;;108.03;51.60;;;;;;;;;;742238;188;632086;-72
2020/12/02 00:54:41;;;;;;;96.70;48.73;;;;;;;;;;740768;188;918703;-71
2020/12/02 00:57:08;;;;;;;92.17;47.20;;;;;;;;;;738301;188;919546;-72
2020/12/02 00:59:34;;;;;;;85.70;46.90;;;;;;;;;;731361;188;1839453;-71
2020/12/02 01:02:09;;;;;;;105.30;54.53;;;;;;;;;;742446;186;918289;-71
2020/12/02 01:04:35;;;;;;;79.53;45.67;;;;;;;;;;738617;188;919084;-71
2020/12/02 01:07:01;;;;;;;93.23;48.77;;;;;;;;;;732292;188;918533;-72
2020/12/02 01:09:27;;;;;;;84.33;43.97;;;;;;;;;;733498;188;921042;-72
2020/12/02 01:11:53;;;;;;;99.27;50.97;;;;;;;;;;741813;188;918363;-71
2020/12/02 01:14:19;;;;;;;93.10;51.63;;;;;;;;;;733939;188;918920;-71
2020/12/02 01:16:45;;;;;;;88.93;46.50;;;;;;;;;;738005;187;919888;-70
2020/12/02 01:19:10;;;;;;;80.60;44.20;;;;;;;;;;732750;188;921072;-72
2020/12/02 01:21:37;;;;;;;100.10;52.23;;;;;;;;;;740152;188;919392;-72
2020/12/02 01:24:03;;;;;;;93.23;51.40;;;;;;;;;;731477;188;996477;-72
2020/12/02 01:26:29;;;;;;;118.10;49.70;;;;;;;;;;733878;185;936859;-71
2020/12/02 01:28:55;;;;;;;103.90;50.37;;;;;;;;;;736390;188;912824;-71
2020/12/02 01:31:21;;;;;;;102.17;49.43;;;;;;;;;;737588;186;917363;-71
2020/12/02 01:33:46;;;;;;;95.37;49.00;;;;;;;;;;733826;188;914545;-70
2020/12/02 01:36:12;;;;;;;96.07;47.57;;;;;;;;;;735318;188;908949;-72
2020/12/02 01:38:38;;;;;;;125.53;55.75;;;;;;;;;;731766;188;1005850;-72
2020/12/02 01:41:04;;;;;;;118.53;51.87;;;;;;;;;;737094;186;914123;-72
2020/12/02 01:43:30;;;;;;;131.60;62.03;;;;;;;;;;737646;188;911767;-72
2020/12/02 01:45:56;;;;;;;98.30;46.90;;;;;;;;;;729797;187;1094156;-71
2020/12/02 01:48:23;;;;;;;116.10;57.00;;;;;;;;;;739804;185;1119804;-72
2020/12/02 01:50:51;;;;;;;98.63;53.83;;;;;;;;;;735213;187;920343;-71
2020/12/02 01:53:17;;;;;;;99.70;53.55;;;;;;;;;;743516;187;917739;-71
2020/12/02 01:55:43;;;;;;;105.27;53.90;;;;;;;;;;737900;186;919358;-72
2020/12/02 01:58:10;;;;;;;96.60;45.60;;;;;;;;;;740395;188;918321;-70
2020/12/02 02:00:35;;;;;;;84.37;44.13;;;;;;;;;;734717;188;918810;-71
2020/12/02 02:03:05;;;;;;;91.95;46.53;;;;;;;;;;735038;188;918895;-71
2020/12/02 02:05:35;;;;;;;96.23;47.20;;;;;;;;;;735568;188;918812;-72
2020/12/02 02:08:01;;;;;;;95.20;46.17;;;;;;;;;;737810;188;918958;-71
2020/12/02 02:10:31;;;;;;;86.30;47.13;;;;;;;;;;734019;188;919793;-72
2020/12/02 02:13:10;;;;;;;88.90;42.30;;;;;;;;;;736909;186;919449;-71
2020/12/02 02:15:39;;;;;;;83.10;42.20;;;;;;;;;;733461;188;918983;-70
2020/12/02 02:18:06;;;;;;;73.73;38.33;;;;;;;;;;737206;186;919407;-72
2020/12/02 02:20:32;;;;;;;73.87;40.13;;;;;;;;;;738415;186;919039;-72
2020/12/02 02:22:58;;;;;;;73.32;37.20;;;;;;;;;;740943;188;914189;-72
2020/12/02 02:25:24;;;;;;;88.10;47.43;;;;;;;;;;737041;188;951878;-71
2020/12/02 02:27:50;;;;;;;70.87;40.12;;;;;;;;;;727876;185;949962;-71
2020/12/02 02:30:16;;;;;;;68.20;36.00;;;;;;;;;;740344;188;919472;-72
2020/12/02 02:32:42;;;;;;;77.73;36.83;;;;;;;;;;734344;185;918510;-72
2020/12/02 02:35:07;;;;;;;75.07;36.50;;;;;;;;;;736889;188;919207;-73
2020/12/02 02:37:33;;;;;;;68.83;37.03;;;;;;;;;;740965;188;919432;-72
2020/12/02 02:39:59;;;;;;;86.10;40.50;;;;;;;;;;737311;188;919805;-71
2020/12/02 02:42:26;;;;;;;82.10;40.67;;;;;;;;;;734520;188;919141;-71
2020/12/02 02:44:52;;;;;;;70.20;38.28;;;;;;;;;;739543;188;846978;-71
2020/12/02 02:47:17;;;;;;;75.40;41.00;;;;;;;;;;736292;188;915723;-72
2020/12/02 02:49:43;;;;;;;75.73;41.83;;;;;;;;;;733334;188;920806;-72
2020/12/02 02:52:09;;;;;;;77.53;42.20;;;;;;;;;;730078;188;899357;-72
2020/12/02 02:54:35;;;;;;;71.20;38.83;;;;;;;;;;743528;186;920271;-71
2020/12/02 02:57:01;;;;;;;72.57;38.60;;;;;;;;;;737117;185;919236;-71
2020/12/02 02:59:27;;;;;;;78.73;40.73;;;;;;;;;;737059;187;919159;-72
2020/12/02 03:01:52;;;;;;;67.33;34.93;;;;;;;;;;738368;188;1017195;-72
2020/12/02 03:04:18;;;;;;;65.13;35.63;;;;;;;;;;735105;188;919002;-72
2020/12/02 03:06:44;;;;;;;64.40;35.70;;;;;;;;;;739033;188;919292;-71
2020/12/02 03:09:10;;;;;;;69.43;38.43;;;;;;;;;;734086;186;918463;-71
2020/12/02 03:11:36;;;;;;;68.13;35.20;;;;;;;;;;740433;184;918721;-72
2020/12/02 03:14:02;;;;;;;65.23;36.90;;;;;;;;;;737107;185;918829;-71
2020/12/02 03:16:28;;;;;;;69.27;36.97;;;;;;;;;;738576;188;918888;-70
2020/12/02 03:18:53;;;;;;;63.37;37.40;;;;;;;;;;731563;187;918806;-70
2020/12/02 03:21:19;;;;;;;81.40;37.47;;;;;;;;;;729339;188;919949;-71
2020/12/02 03:23:45;;;;;;;69.50;37.63;;;;;;;;;;729655;185;919882;-70
2020/12/02 03:26:11;;;;;;;81.60;36.83;;;;;;;;;;743527;188;919014;-70
2020/12/02 03:28:37;;;;;;;66.50;33.87;;;;;;;;;;735708;186;919182;-71
2020/12/02 03:31:03;;;;;;;77.80;39.83;;;;;;;;;;730561;188;919158;-70
2020/12/02 03:33:28;;;;;;;74.57;38.27;;;;;;;;;;744115;186;937313;-70
2020/12/02 03:35:54;;;;;;;78.27;40.90;;;;;;;;;;730983;188;2263582;-70
2020/12/02 03:38:20;;;;;;;81.30;40.17;;;;;;;;;;739669;188;945862;-70
2020/12/02 03:40:47;;;;;;;85.10;42.00;;;;;;;;;;736863;188;919121;-70
2020/12/02 03:43:13;;;;;;;73.43;39.80;;;;;;;;;;743185;186;919136;-70
2020/12/02 03:45:40;;;;;;;74.20;39.97;;;;;;;;;;727945;188;918869;-70
2020/12/02 03:48:07;;;;;;;84.78;39.17;;;;;;;;;;735839;188;919651;-71
2020/12/02 03:50:32;;;;;;;85.70;42.73;;;;;;;;;;740864;186;918929;-70
2020/12/02 03:52:58;;;;;;;72.43;40.13;;;;;;;;;;734680;185;919223;-70
2020/12/02 03:55:24;;;;;;;82.53;40.97;;;;;;;;;;731058;188;1164342;-71
2020/12/02 03:57:50;;;;;;;80.57;41.90;;;;;;;;;;736016;188;919816;-70
2020/12/02 04:00:15;;;;;;;88.80;44.80;;;;;;;;;;733312;188;1021595;-71
2020/12/02 04:02:41;;;;;;;105.50;53.77;;;;;;;;;;738991;188;1021912;-71
2020/12/02 04:05:07;;;;;;;126.77;62.73;;;;;;;;;;739648;188;918832;-70
2020/12/02 04:07:33;;;;;;;127.30;61.87;;;;;;;;;;729068;188;918342;-70
2020/12/02 04:09:59;;;;;;;113.37;56.33;;;;;;;;;;731879;188;932934;-70
2020/12/02 04:12:25;;;;;;;102.10;51.80;;;;;;;;;;738122;187;918488;-72
2020/12/02 04:14:51;;;;;;;113.70;57.13;;;;;;;;;;744963;186;918672;-72
2020/12/02 04:17:17;;;;;;;135.05;63.35;;;;;;;;;;738466;187;917228;-72
2020/12/02 04:19:43;;;;;;;99.57;51.33;;;;;;;;;;740438;186;918709;-73
2020/12/02 04:22:09;;;;;;;107.90;55.30;;;;;;;;;;740930;185;918523;-71
2020/12/02 04:24:35;;;;;;;99.87;51.87;;;;;;;;;;738957;188;925567;-71
2020/12/02 04:27:00;;;;;;;120.33;53.17;;;;;;;;;;733113;188;918677;-71
2020/12/02 04:29:26;;;;;;;120.33;54.00;;;;;;;;;;741119;188;919202;-71
2020/12/02 04:31:52;;;;;;;100.57;52.47;;;;;;;;;;732693;186;918231;-71
2020/12/02 04:34:19;;;;;;;96.47;47.40;;;;;;;;;;737116;188;919562;-71
2020/12/02 04:36:47;;;;;;;107.10;54.97;;;;;;;;;;735360;188;920246;-70
2020/12/02 04:39:13;;;;;;;95.17;50.63;;;;;;;;;;741170;186;921127;-71
2020/12/02 04:41:38;;;;;;;90.03;47.80;;;;;;;;;;730836;187;922788;-71
2020/12/02 04:44:04;;;;;;;95.87;46.23;;;;;;;;;;736605;187;1046859;-71
2020/12/02 04:46:31;;;;;;;99.57;51.00;;;;;;;;;;737567;186;919976;-71
2020/12/02 04:48:56;;;;;;;92.10;49.33;;;;;;;;;;736467;188;919888;-71
2020/12/02 04:51:23;;;;;;;95.80;44.60;;;;;;;;;;737232;185;948771;-70
2020/12/02 04:53:49;;;;;;;96.50;49.63;;;;;;;;;;739828;188;911913;-70
2020/12/02 04:56:15;;;;;;;96.53;48.50;;;;;;;;;;731803;186;916252;-71
2020/12/02 04:58:40;;;;;;;85.77;43.50;;;;;;;;;;730807;186;919476;-70
2020/12/02 05:01:12;;;;;;;94.03;48.33;;;;;;;;;;737196;187;920057;-70
2020/12/02 05:03:38;;;;;;;96.17;47.90;;;;;;;;;;735112;185;1565611;-70
2020/12/02 05:06:04;;;;;;;87.40;46.67;;;;;;;;;;733884;185;918554;-71
2020/12/02 05:08:30;;;;;;;96.03;47.33;;;;;;;;;;733703;185;919227;-71
2020/12/02 05:10:55;;;;;;;130.05;57.60;;;;;;;;;;744206;188;918257;-70
2020/12/02 05:13:21;;;;;;;148.50;67.50;;;;;;;;;;731472;186;1030423;-70
2020/12/02 05:15:47;;;;;;;144.07;68.73;;;;;;;;;;738261;188;919285;-70
2020/12/02 05:18:23;;;;;;;156.57;74.05;;;;;;;;;;734834;186;919662;-70
2020/12/02 05:20:55;;;;;;;182.97;78.87;;;;;;;;;;738137;187;919146;-72
2020/12/02 05:23:21;;;;;;;164.60;77.37;;;;;;;;;;738330;184;918698;-71
2020/12/02 05:25:47;;;;;;;151.87;74.20;;;;;;;;;;737102;188;919274;-71
2020/12/02 05:28:14;;;;;;;140.77;63.90;;;;;;;;;;730441;185;1091312;-70
2020/12/02 05:30:39;;;;;;;117.73;52.63;;;;;;;;;;746070;186;712927;-70
2020/12/02 05:33:05;;;;;;;133.00;59.03;;;;;;;;;;735287;188;919005;-70
2020/12/02 05:35:31;;;;;;;137.80;62.10;;;;;;;;;;732693;185;919414;-71
2020/12/02 05:37:57;;;;;;;123.63;58.80;;;;;;;;;;745725;186;919167;-71
2020/12/02 05:40:23;;;;;;;126.85;60.12;;;;;;;;;;737131;188;919915;-71
2020/12/02 05:42:52;;;;;;;117.97;55.50;;;;;;;;;;735981;187;919232;-71
2020/12/02 05:45:18;;;;;;;138.57;63.13;;;;;;;;;;733233;186;919601;-71
2020/12/02 05:47:44;;;;;;;123.60;58.50;;;;;;;;;;740224;188;918062;-70
2020/12/02 05:50:10;;;;;;;112.87;54.57;;;;;;;;;;731141;185;924735;-70
2020/12/02 05:52:36;;;;;;;112.90;53.17;;;;;;;;;;734105;188;919384;-71
2020/12/02 05:55:02;;;;;;;115.77;54.53;;;;;;;;;;741930;188;714275;-71
2020/12/02 05:57:27;;;;;;;116.47;55.27;;;;;;;;;;740836;185;745755;-71
2020/12/02 05:59:55;;;;;;;90.20;44.60;;;;;;;;;;729516;188;919086;-71
2020/12/02 06:02:21;;;;;;;99.97;47.73;;;;;;;;;;744780;185;918713;-70
2020/12/02 06:04:50;;;;;;;116.27;52.40;;;;;;;;;;731911;185;918572;-70
2020/12/02 06:07:15;;;;;;;112.40;56.67;;;;;;;;;;739882;188;919108;-71
2020/12/02 06:09:42;;;;;;;93.40;47.37;;;;;;;;;;733647;188;955522;-69
2020/12/02 06:12:11;;;;;;;103.80;50.47;;;;;;;;;;743746;186;917008;-72
2020/12/02 06:14:37;;;;;;;100.07;49.28;;;;;;;;;;732857;187;918736;-71
2020/12/02 06:17:03;;;;;;;92.50;50.07;;;;;;;;;;732331;188;918488;-71
2020/12/02 06:19:34;;;;;;;104.38;48.25;;;;;;;;;;740752;188;921388;-70
2020/12/02 06:22:00;;;;;;;106.43;50.77;;;;;;;;;;741788;185;626713;-71
2020/12/02 06:24:37;;;;;;;94.87;49.67;;;;;;;;;;729251;188;919168;-71
2020/12/02 06:27:03;;;;;;;102.47;49.47;;;;;;;;;;735309;186;918379;-69
2020/12/02 06:29:30;;;;;;;92.90;45.30;;;;;;;;;;735688;188;919116;-69
2020/12/02 06:31:56;;;;;;;83.93;42.57;;;;;;;;;;735214;188;860898;-71
2020/12/02 06:34:22;;;;;;;76.90;40.73;;;;;;;;;;741245;185;918954;-70
2020/12/02 06:36:48;;;;;;;87.68;42.92;;;;;;;;;;739147;184;918748;-69
2020/12/02 06:39:14;;;;;;;84.63;41.83;;;;;;;;;;740855;185;919829;-70
2020/12/02 06:41:40;;;;;;;87.60;41.53;;;;;;;;;;734666;188;919206;-70
2020/12/02 06:44:09;;;;;;;93.80;43.17;;;;;;;;;;738711;185;919175;-71
2020/12/02 06:46:38;;;;;;;79.33;42.10;;;;;;;;;;735987;186;919257;-71
2020/12/02 06:49:03;;;;;;;88.10;42.20;;;;;;;;;;742198;186;917152;-70
2020/12/02 06:51:30;;;;;;;87.97;41.80;;;;;;;;;;733423;185;919085;-70
2020/12/02 06:53:55;;;;;;;76.80;39.65;;;;;;;;;;736120;188;919256;-71
2020/12/02 06:56:22;;;;;;;76.40;39.33;;;;;;;;;;743400;188;919130;-69
2020/12/02 06:58:54;;;;;;;78.03;38.77;;;;;;;;;;734154;186;940116;-70
2020/12/02 07:01:20;;;;;;;71.23;41.87;;;;;;;;;;740042;185;1023394;-71
2020/12/02 07:03:46;;;;;;;80.57;41.77;;;;;;;;;;737075;186;918988;-68
2020/12/02 07:06:17;;;;;;;84.27;44.80;;;;;;;;;;740373;187;919507;-70
2020/12/02 07:08:42;;;;;;;82.83;45.20;;;;;;;;;;736201;188;918778;-71
2020/12/02 07:11:08;;;;;;;81.20;41.87;;;;;;;;;;740138;188;918477;-70
2020/12/02 07:13:36;;;;;;;79.90;44.37;;;;;;;;;;730974;191;916625;-70
2020/12/02 07:16:00;;;;;;;89.00;46.57;;;;;;;;;;739703;188;919041;-70
2020/12/02 07:18:26;;;;;;;92.20;50.60;;;;;;;;;;734522;185;1021199;-70
2020/12/02 07:20:57;;;;;;;128.47;60.50;;;;;;;;;;743003;185;917781;-70
2020/12/02 07:23:23;;;;;;;106.37;56.58;;;;;;;;;;733691;188;917248;-69
2020/12/02 07:25:49;;;;;;;121.70;59.67;;;;;;;;;;737845;185;915987;-70
2020/12/02 07:28:15;;;;;;;132.03;70.33;;;;;;;;;;731417;188;920795;-71
2020/12/02 07:30:41;;;;;;;179.60;87.77;;;;;;;;;;737780;188;919167;-69
2020/12/02 07:33:08;;;;;;;161.03;80.13;;;;;;;;;;731637;186;919186;-69
2020/12/02 07:35:34;;;;;;;190.20;92.10;;;;;;;;;;737406;188;919547;-69
2020/12/02 07:38:06;;;;;;;187.97;90.90;;;;;;;;;;734847;188;918739;-68
2020/12/02 07:40:34;;;;;;;161.50;79.87;;;;;;;;;;734664;186;916976;-69
2020/12/02 07:42:58;;;;;;;146.17;65.70;;;;;;;;;;730450;188;919620;-69
2020/12/02 07:45:24;;;;;;;124.77;58.00;;;;;;;;;;736139;187;918947;-68
2020/12/02 07:47:53;;;;;;;112.73;51.73;;;;;;;;;;737436;188;919188;-69
2020/12/02 07:50:21;;;;;;;104.37;49.70;;;;;;;;;;732169;188;921523;-69
2020/12/02 07:52:47;;;;;;;104.03;45.40;;;;;;;;;;737196;187;919682;-68
2020/12/02 07:55:13;;;;;;;94.53;44.53;;;;;;;;;;734406;186;921108;-68
2020/12/02 07:57:38;;;;;;;99.70;44.80;;;;;;;;;;737712;188;919653;-69
2020/12/02 08:00:05;;;;;;;88.57;38.93;;;;;;;;;;741679;188;917713;-69
2020/12/02 08:02:31;;;;;;;79.27;37.23;;;;;;;;;;738251;188;916543;-69
2020/12/02 08:04:58;;;;;;;102.93;41.90;;;;;;;;;;739286;188;919718;-68
2020/12/02 08:07:23;;;;;;;82.53;35.63;;;;;;;;;;732510;186;911829;-68
2020/12/02 08:09:49;;;;;;;91.67;37.40;;;;;;;;;;735318;188;912521;-69
2020/12/02 08:12:15;;;;;;;87.00;43.63;;;;;;;;;;742780;188;918543;-69
2020/12/02 08:14:41;;;;;;;94.50;44.27;;;;;;;;;;736931;188;940849;-70
2020/12/02 08:17:07;;;;;;;94.23;43.10;;;;;;;;;;734989;188;919194;-70
2020/12/02 08:19:33;;;;;;;92.45;42.65;;;;;;;;;;734641;188;918915;-70
2020/12/02 08:21:59;;;;;;;87.30;41.67;;;;;;;;;;738293;185;919597;-73
2020/12/02 08:24:42;;;;;;;137.93;59.90;;;;;;;;;;739639;185;919477;-70
2020/12/02 08:27:08;;;;;;;96.20;45.20;;;;;;;;;;736048;188;902199;-70
2020/12/02 08:29:34;;;;;;;97.83;45.43;;;;;;;;;;732444;188;918663;-70
2020/12/02 08:32:03;;;;;;;99.07;44.90;;;;;;;;;;735723;188;920463;-70
2020/12/02 08:34:29;;;;;;;99.03;44.50;;;;;;;;;;739537;185;917752;-69
2020/12/02 08:37:00;;;;;;;98.90;46.70;;;;;;;;;;727344;188;919686;-69
2020/12/02 08:39:27;;;;;;;98.87;46.70;;;;;;;;;;734434;188;919565;-68
2020/12/02 08:41:53;;;;;;;96.27;45.00;;;;;;;;;;738923;188;919087;-68
2020/12/02 08:44:19;;;;;;;106.23;47.97;;;;;;;;;;731934;188;920476;-65
2020/12/02 08:46:46;;;;;;;86.80;44.47;;;;;;;;;;736890;185;995643;-66
2020/12/02 08:49:12;;;;;;;135.57;63.17;;;;;;;;;;735820;188;918321;-67
2020/12/02 08:51:38;;;;;;;123.53;61.43;;;;;;;;;;731799;188;919116;-66
2020/12/02 08:54:08;;;;;;;102.00;48.80;;;;;;;;;;736737;186;918712;-65
2020/12/02 08:56:34;;;;;;;109.80;50.53;;;;;;;;;;737965;186;919166;-65
2020/12/02 08:59:00;;;;;;;73.83;43.10;;;;;;;;;;745076;188;919903;-65
2020/12/02 09:01:25;;;;;;;83.70;38.90;;;;;;;;;;736494;187;919239;-65
2020/12/02 09:03:51;;;;;;;66.80;31.50;;;;;;;;;;738623;187;919470;-65
2020/12/02 09:06:17;;;;;;;99.27;48.10;;;;;;;;;;735696;188;919306;-64
2020/12/02 09:08:43;;;;;;;78.80;39.60;;;;;;;;;;737244;185;1043848;-65
2020/12/02 09:11:09;;;;;;;72.10;35.43;;;;;;;;;;738849;188;919916;-64
2020/12/02 09:13:35;;;;;;;62.63;31.60;;;;;;;;;;740974;188;917133;-64
2020/12/02 09:16:00;;;;;;;65.37;32.00;;;;;;;;;;738960;188;922512;-63
2020/12/02 09:18:26;;;;;;;66.60;30.37;;;;;;;;;;729545;188;919378;-66
2020/12/02 09:20:53;;;;;;;55.15;30.35;;;;;;;;;;737883;188;919632;-62
2020/12/02 09:23:18;;;;;;;58.87;26.70;;;;;;;;;;737719;185;919681;-64
2020/12/02 09:25:44;;;;;;;49.08;27.30;;;;;;;;;;738461;188;919370;-65
2020/12/02 09:28:10;;;;;;;48.17;26.50;;;;;;;;;;727527;185;1190108;-65
2020/12/02 09:30:36;;;;;;;59.47;29.92;;;;;;;;;;738471;188;919030;-65
2020/12/02 09:33:02;;;;;;;51.33;28.00;;;;;;;;;;729412;186;951147;-65
2020/12/02 09:35:28;;;;;;;71.05;35.38;;;;;;;;;;730373;188;924084;-65
2020/12/02 09:37:54;;;;;;;75.23;38.90;;;;;;;;;;734218;188;919510;-66
2020/12/02 09:40:20;;;;;;;75.87;41.07;;;;;;;;;;734273;185;919580;-66
2020/12/02 09:42:49;;;;;;;89.30;40.77;;;;;;;;;;738368;185;919202;-66
2020/12/02 09:45:14;;;;;;;65.87;35.73;;;;;;;;;;736941;185;919511;-64
2020/12/02 09:47:40;;;;;;;65.50;35.80;;;;;;;;;;733424;188;922564;-66
2020/12/02 09:50:06;;;;;;;80.73;40.83;;;;;;;;;;732959;185;918749;-66
2020/12/02 09:52:48;;;;;;;84.07;41.88;;;;;;;;;;735047;185;919426;-66
2020/12/02 09:55:29;;;;;;;188.13;102.77;;;;;;;;;;715788;192;952810;-67
2020/12/02 09:57:55;;;;;;;64.80;35.80;;;;;;;;;;713189;192;919493;-67
2020/12/02 10:00:22;;;;;;;77.67;40.90;;;;;;;;;;741959;185;917533;-67
2020/12/02 10:02:50;;;;;;;83.70;40.67;;;;;;;;;;734584;185;919240;-67
2020/12/02 10:05:16;;;;;;;80.55;39.42;;;;;;;;;;731737;187;919599;-65
2020/12/02 10:07:47;;;;;;;82.60;38.50;;;;;;;;;;736463;189;916518;-67
2020/12/02 10:10:18;;;;;;;70.03;39.03;;;;;;;;;;734177;188;919228;-66
2020/12/02 10:12:50;;;;;;;79.53;38.13;;;;;;;;;;737332;185;919338;-67
2020/12/02 10:15:23;;;;;;;83.33;38.53;;;;;;;;;;732233;185;1576930;-67
2020/12/02 10:17:51;;;;;;;61.57;32.23;;;;;;;;;;739571;185;919279;-67
2020/12/02 10:20:34;;;;;;;51.83;30.17;;;;;;;;;;737580;185;920331;-68
2020/12/02 10:23:00;;;;;;;57.55;28.83;;;;;;;;;;743223;185;919413;-68
2020/12/02 10:25:29;;;;;;;50.33;28.40;;;;;;;;;;734194;185;918957;-66
2020/12/02 10:28:15;;;;;;;52.07;27.00;;;;;;;;;;737173;186;919603;-68
2020/12/02 10:30:41;;;;;;;57.57;28.90;;;;;;;;;;737212;187;916251;-67
2020/12/02 10:33:14;;;;;;;55.60;29.27;;;;;;;;;;735731;186;919620;-68
2020/12/02 10:35:38;;;;;;;58.10;31.63;;;;;;;;;;736115;185;1040072;-68
2020/12/02 10:38:04;;;;;;;63.73;32.77;;;;;;;;;;738932;188;918912;-68
2020/12/02 10:40:30;;;;;;;65.97;34.00;;;;;;;;;;731411;188;918824;-68
2020/12/02 10:43:12;;;;;;;60.90;32.63;;;;;;;;;;739322;188;918572;-68
2020/12/02 10:45:38;;;;;;;68.23;30.63;;;;;;;;;;727190;190;1021595;-67
2020/12/02 10:48:06;;;;;;;67.18;30.80;;;;;;;;;;731746;188;940183;-67
2020/12/02 10:50:32;;;;;;;67.43;36.83;;;;;;;;;;727407;187;919217;-70
2020/12/02 10:52:58;;;;;;;64.53;31.43;;;;;;;;;;739470;185;918456;-66
2020/12/02 10:55:24;;;;;;;53.73;27.73;;;;;;;;;;745007;185;921233;-65
2020/12/02 10:57:54;;;;;;;57.57;30.10;;;;;;;;;;716728;185;3396686;-63
2020/12/02 11:00:20;;;;;;;56.60;31.37;;;;;;;;;;735153;185;1124447;-65
2020/12/02 11:02:46;;;;;;;60.43;31.10;;;;;;;;;;735808;187;919661;-65
2020/12/02 11:05:12;;;;;;;54.60;29.70;;;;;;;;;;734554;185;920378;-64
2020/12/02 11:07:43;;;;;;;56.87;26.90;;;;;;;;;;730202;188;918993;-65
2020/12/02 11:10:09;;;;;;;53.40;31.30;;;;;;;;;;732968;188;919624;-65
2020/12/02 11:12:41;;;;;;;57.00;27.53;;;;;;;;;;735443;188;918726;-64
2020/12/02 11:15:22;;;;;;;50.83;27.33;;;;;;;;;;739088;188;976003;-65
2020/12/02 11:18:04;;;;;;;56.10;27.40;;;;;;;;;;735590;185;920095;-64
2020/12/02 11:20:32;;;;;;;48.20;24.57;;;;;;;;;;736349;186;919379;-64
2020/12/02 11:23:09;;;;;;;55.37;27.67;;;;;;;;;;728562;187;2177258;-66
2020/12/02 11:25:50;;;;;;;51.80;27.65;;;;;;;;;;738773;188;1020628;-66
2020/12/02 11:28:16;;;;;;;57.93;31.27;;;;;;;;;;731442;185;918333;-65
2020/12/02 11:30:42;;;;;;;54.27;29.03;;;;;;;;;;741770;188;920442;-64
2020/12/02 11:33:24;;;;;;;75.50;33.40;;;;;;;;;;730472;186;920334;-65
2020/12/02 11:36:07;;;;;;;38.70;22.30;;;;;;;;;;736656;186;916920;-63
2020/12/02 11:38:35;;;;;;;41.50;23.37;;;;;;;;;;732528;188;919375;-63
2020/12/02 11:41:05;;;;;;;88.93;40.50;;;;;;;;;;738006;186;940677;-63
2020/12/02 11:43:30;;;;;;;49.85;29.60;;;;;;;;;;730541;186;1153881;-62
2020/12/02 11:45:56;;;;;;;68.33;34.13;;;;;;;;;;741828;188;912383;-66
2020/12/02 11:48:23;;;;;;;58.47;31.77;;;;;;;;;;732683;185;919944;-63
2020/12/02 11:50:52;;;;;;;45.00;23.20;;;;;;;;;;739819;188;919625;-63
2020/12/02 11:53:23;;;;;;;54.47;27.97;;;;;;;;;;739214;188;1021535;-63
2020/12/02 11:55:49;;;;;;;39.83;21.67;;;;;;;;;;738835;188;919385;-62
2020/12/02 11:58:15;;;;;;;45.05;22.23;;;;;;;;;;733995;188;919583;-63
2020/12/02 12:00:41;;;;;;;42.93;22.00;;;;;;;;;;738614;188;1021708;-62
2020/12/02 12:03:21;;;;;;;53.63;25.75;;;;;;;;;;743375;188;927835;-63
2020/12/02 12:05:47;;;;;;;40.53;19.93;;;;;;;;;;736024;188;918938;-63
2020/12/02 12:08:14;;;;;;;39.13;21.43;;;;;;;;;;730933;188;919808;-65
2020/12/02 12:10:42;;;;;;;60.08;23.85;;;;;;;;;;733779;188;919432;-64
2020/12/02 12:13:09;;;;;;;54.47;28.15;;;;;;;;;;739988;188;919297;-65
2020/12/02 12:15:36;;;;;;;46.77;27.53;;;;;;;;;;733989;188;918518;-65
2020/12/02 12:18:03;;;;;;;56.93;30.27;;;;;;;;;;731764;188;919626;-65
2020/12/02 12:20:30;;;;;;;51.33;28.40;;;;;;;;;;729675;188;1020717;-65
2020/12/02 12:23:04;;;;;;;49.90;25.73;;;;;;;;;;743646;186;919424;-62
2020/12/02 12:25:30;;;;;;;42.50;28.50;;;;;;;;;;727156;186;2094444;-64
2020/12/02 12:27:56;;;;;;;44.30;25.60;;;;;;;;;;736171;187;919502;-64
2020/12/02 12:30:22;;;;;;;54.70;34.37;;;;;;;;;;730219;186;1026938;-63
2020/12/02 12:32:48;;;;;;;59.57;30.43;;;;;;;;;;740406;187;919795;-65
2020/12/02 12:35:13;;;;;;;58.73;26.73;;;;;;;;;;731582;188;920776;-63
2020/12/02 12:37:41;;;;;;;49.10;28.13;;;;;;;;;;737400;188;953041;-65
2020/12/02 12:40:07;;;;;;;69.77;34.07;;;;;;;;;;737403;188;919629;-64
2020/12/02 12:42:38;;;;;;;72.33;32.50;;;;;;;;;;740993;185;922004;-65
2020/12/02 12:44:59;;;;;;;122.73;46.57;;;;;;;;;;731602;187;919553;-65
2020/12/02 12:47:25;;;;;;;76.33;37.27;;;;;;;;;;739753;185;914432;-64
2020/12/02 12:49:52;;;;;;;82.30;36.83;;;;;;;;;;736049;186;919337;-64
2020/12/02 12:52:19;;;;;;;68.43;35.90;;;;;;;;;;732793;185;918978;-64
2020/12/02 12:54:44;;;;;;;93.00;47.87;;;;;;;;;;735943;188;919097;-66
2020/12/02 12:57:10;;;;;;;114.57;49.57;;;;;;;;;;740458;188;917538;-64
2020/12/02 12:59:36;;;;;;;111.73;48.70;;;;;;;;;;737652;188;969231;-62
2020/12/02 13:02:02;;;;;;;92.27;46.90;;;;;;;;;;733915;188;918593;-64
2020/12/02 13:04:28;;;;;;;59.73;31.77;;;;;;;;;;743285;187;919880;-64
2020/12/02 13:06:58;;;;;;;50.63;27.23;;;;;;;;;;737956;185;916064;-62
2020/12/02 13:09:42;;;;;;;50.83;24.20;;;;;;;;;;736999;188;933445;-63
2020/12/02 13:12:10;;;;;;;58.03;32.70;;;;;;;;;;726058;186;2167036;-64
2020/12/02 13:14:38;;;;;;;59.87;28.20;;;;;;;;;;737157;188;920160;-65
2020/12/02 13:17:04;;;;;;;50.67;28.10;;;;;;;;;;736974;188;917584;-65
2020/12/02 13:19:32;;;;;;;66.43;31.42;;;;;;;;;;734622;188;919075;-63
2020/12/02 13:21:59;;;;;;;51.37;28.83;;;;;;;;;;726024;186;920570;-64
2020/12/02 13:24:25;;;;;;;55.20;28.30;;;;;;;;;;736507;188;918462;-64
2020/12/02 13:26:51;;;;;;;50.60;26.87;;;;;;;;;;730094;185;915769;-63
2020/12/02 13:29:22;;;;;;;51.87;27.83;;;;;;;;;;729418;185;916172;-64
2020/12/02 13:31:53;;;;;;;74.62;38.15;;;;;;;;;;723535;185;2780606;-65
2020/12/02 13:34:19;;;;;;;54.40;27.90;;;;;;;;;;742627;185;918791;-65
2020/12/02 13:36:45;;;;;;;46.40;27.23;;;;;;;;;;736226;188;920436;-63
2020/12/02 13:39:11;;;;;;;50.17;26.60;;;;;;;;;;734557;188;918654;-65
2020/12/02 13:41:52;;;;;;;50.43;27.73;;;;;;;;;;730766;188;919971;-63
2020/12/02 13:44:18;;;;;;;46.83;26.33;;;;;;;;;;724390;188;919653;-63
2020/12/02 13:46:44;;;;;;;45.00;25.20;;;;;;;;;;741351;185;919236;-64
2020/12/02 13:49:10;;;;;;;44.83;24.17;;;;;;;;;;733050;185;919279;-64
2020/12/02 13:51:41;;;;;;;39.05;20.95;;;;;;;;;;739107;185;935460;-65
2020/12/02 13:54:07;;;;;;;44.70;25.20;;;;;;;;;;733741;185;1373344;-64
2020/12/02 13:56:33;;;;;;;41.30;23.70;;;;;;;;;;741329;188;919327;-63
2020/12/02 13:58:59;;;;;;;56.60;26.00;;;;;;;;;;730023;188;919668;-64